Time;durP1;ratioP1;P1;durP2;ratioP2;P2;SDS_P1;SDS_P2;PMS_P1;PMS_P2;Temp;Humidity;BMP_temperature;BMP_pressure;BME280_temperature;BME280_humidity;BME280_pressure;Samples;Min_cycle;Max_cycle;Signal;HPM_P1;HPM_P2
2024/02/04 00:00:18;;;;;;;34.10;24.35;;;;;;;1.33;100.00;97465.22;5056342;28;20039;-72
2024/02/04 00:02:43;;;;;;;43.78;25.85;;;;;;;1.26;100.00;97467.13;5056312;28;20107;-72
2024/02/04 00:05:08;;;;;;;37.15;23.95;;;;;;;1.25;100.00;97469.78;5056837;28;20105;-72
2024/02/04 00:07:34;;;;;;;40.28;24.17;;;;;;;1.25;100.00;97467.19;5060858;28;20493;-72
2024/02/04 00:09:59;;;;;;;33.75;24.75;;;;;;;1.21;100.00;97469.00;5073958;28;20036;-72
2024/02/04 00:12:25;;;;;;;33.53;23.33;;;;;;;1.21;100.00;97468.13;5065897;28;20079;-72
2024/02/04 00:14:50;;;;;;;30.75;21.80;;;;;;;1.22;100.00;97467.25;5056412;28;20608;-72
2024/02/04 00:17:16;;;;;;;35.97;22.38;;;;;;;1.20;100.00;97461.22;5069711;28;20408;-72
2024/02/04 00:19:42;;;;;;;30.80;21.15;;;;;;;1.16;100.00;97470.88;5056541;28;20025;-72
2024/02/04 00:22:07;;;;;;;26.35;19.08;;;;;;;1.14;100.00;97463.09;5075560;28;20031;-72
2024/02/04 00:24:33;;;;;;;33.72;22.08;;;;;;;1.04;100.00;97465.97;5079179;28;20051;-72
2024/02/04 00:26:58;;;;;;;31.00;22.38;;;;;;;1.01;100.00;97461.75;5068341;28;20024;-72
2024/02/04 00:29:24;;;;;;;34.67;23.35;;;;;;;0.97;100.00;97466.16;5057816;28;20051;-72
2024/02/04 00:31:49;;;;;;;32.30;20.52;;;;;;;0.93;100.00;97463.66;5063238;28;20067;-72
2024/02/04 00:34:14;;;;;;;21.77;16.33;;;;;;;0.88;100.00;97466.34;5056086;28;20021;-72
2024/02/04 00:36:40;;;;;;;16.20;14.27;;;;;;;0.93;100.00;97466.25;5065100;28;20044;-72
2024/02/04 00:39:07;;;;;;;17.52;12.98;;;;;;;0.90;100.00;97466.34;5058039;28;20028;-72
2024/02/04 00:41:33;;;;;;;16.52;13.10;;;;;;;0.89;100.00;97472.41;5065756;28;20040;-72
2024/02/04 00:43:58;;;;;;;19.15;15.25;;;;;;;0.89;100.00;97469.81;5066649;28;20457;-72
2024/02/04 00:46:23;;;;;;;23.52;16.67;;;;;;;0.89;100.00;97459.44;5064313;28;20124;-72
2024/02/04 00:48:49;;;;;;;21.55;15.80;;;;;;;0.85;100.00;97456.94;5074143;28;20059;-72
2024/02/04 00:51:17;;;;;;;20.48;14.63;;;;;;;0.80;100.00;97453.59;5070278;28;20021;-72
2024/02/04 00:53:43;;;;;;;21.98;16.30;;;;;;;0.77;100.00;97447.63;5064583;28;20017;-72
2024/02/04 00:56:09;;;;;;;18.75;14.40;;;;;;;0.76;100.00;97448.53;5062251;28;20036;-72
2024/02/04 00:58:35;;;;;;;18.88;15.10;;;;;;;0.75;100.00;97450.25;5057321;28;20440;-72
2024/02/04 01:01:00;;;;;;;21.75;14.48;;;;;;;0.75;100.00;97444.22;5056429;28;20090;-72
2024/02/04 01:03:25;;;;;;;21.08;15.15;;;;;;;0.76;100.00;97444.19;5068629;28;20024;-72
2024/02/04 01:05:51;;;;;;;18.45;13.57;;;;;;;0.76;100.00;97448.53;5055536;28;20541;-72
2024/02/04 01:08:16;;;;;;;19.38;14.45;;;;;;;0.73;100.00;97448.59;5067012;28;20048;-72
2024/02/04 01:10:42;;;;;;;18.10;13.57;;;;;;;0.67;100.00;97457.38;5073324;28;20103;-72
2024/02/04 01:13:07;;;;;;;18.42;14.02;;;;;;;0.70;100.00;97458.16;5073659;28;20036;-72
2024/02/04 01:15:32;;;;;;;17.98;15.20;;;;;;;0.74;100.00;97458.91;5056876;28;20031;-72
2024/02/04 01:17:58;;;;;;;16.27;14.00;;;;;;;0.70;100.00;97457.31;5066762;28;20028;-72
2024/02/04 01:20:23;;;;;;;19.25;15.18;;;;;;;0.73;100.00;97467.59;5074143;28;20097;-72
2024/02/04 01:22:48;;;;;;;16.30;13.40;;;;;;;0.77;100.00;97458.84;5078898;28;20035;-72
2024/02/04 01:25:14;;;;;;;17.80;14.88;;;;;;;0.75;100.00;97450.25;5072060;28;20401;-72
2024/02/04 01:27:40;;;;;;;21.92;13.82;;;;;;;0.79;100.00;97456.22;5058231;28;20017;-72
2024/02/04 01:30:06;;;;;;;17.17;12.52;;;;;;;0.80;100.00;97452.75;5062162;28;20025;-72
2024/02/04 01:32:31;;;;;;;17.42;13.20;;;;;;;0.77;100.00;97448.47;5066235;28;20301;-72
2024/02/04 01:34:57;;;;;;;20.98;14.30;;;;;;;0.75;100.00;97447.66;5062068;28;20032;-72
2024/02/04 01:37:23;;;;;;;17.35;12.60;;;;;;;0.68;100.00;97459.94;5060627;28;20442;-72
2024/02/04 01:39:48;;;;;;;22.63;13.57;;;;;;;0.62;100.00;97448.88;5062572;28;20154;-72
2024/02/04 01:42:14;;;;;;;23.08;13.85;;;;;;;0.60;100.00;97450.66;5062292;28;20098;-72
2024/02/04 01:44:39;;;;;;;20.15;14.02;;;;;;;0.60;100.00;97454.09;5074163;28;20029;-72
2024/02/04 01:47:05;;;;;;;21.40;15.43;;;;;;;0.55;100.00;97450.75;5059227;28;20041;-72
2024/02/04 01:49:30;;;;;;;19.77;13.25;;;;;;;0.59;100.00;97459.31;5055608;28;20413;-72
2024/02/04 01:51:56;;;;;;;20.15;12.20;;;;;;;0.61;100.00;97463.56;5062116;28;20039;-72
2024/02/04 01:54:25;;;;;;;18.40;12.43;;;;;;;0.55;100.00;97467.16;5073167;28;20055;-72
2024/02/04 01:56:51;;;;;;;12.32;10.35;;;;;;;0.49;100.00;97467.28;5054361;28;20036;-72
2024/02/04 01:59:19;;;;;;;15.05;10.13;;;;;;;0.54;100.00;97477.56;5059818;28;20016;-72
2024/02/04 02:01:45;;;;;;;18.73;11.65;;;;;;;0.57;100.00;97473.16;5061254;28;20082;-72
2024/02/04 02:04:11;;;;;;;13.15;10.18;;;;;;;0.50;100.00;97469.00;5061052;28;20101;-72
2024/02/04 02:06:41;;;;;;;12.90;9.85;;;;;;;0.46;100.00;97459.59;5066653;28;20059;-72
2024/02/04 02:09:10;;;;;;;17.42;10.23;;;;;;;0.41;100.00;97457.09;5073227;28;20103;-72
2024/02/04 02:11:40;;;;;;;11.55;10.15;;;;;;;0.43;100.00;97457.91;5074774;28;20032;-72
2024/02/04 02:14:13;;;;;;;11.73;9.40;;;;;;;0.42;100.00;97464.00;5067914;28;20021;-73
2024/02/04 02:16:39;;;;;;;13.75;10.38;;;;;;;0.40;100.00;97459.75;5059668;28;20032;-72
2024/02/04 02:19:52;;;;;;;11.32;9.23;;;;;;;0.44;100.00;97461.38;5054490;28;20104;-72
2024/02/04 02:22:41;;;;;;;11.18;9.07;;;;;;;0.43;100.00;97465.69;5077259;28;20024;-72
2024/02/04 02:25:07;;;;;;;10.82;9.07;;;;;;;0.42;100.00;97461.41;5071001;28;20080;-72
2024/02/04 02:27:33;;;;;;;10.18;7.82;;;;;;;0.36;100.00;97458.94;5065313;28;20139;-72
2024/02/04 02:29:58;;;;;;;10.20;8.95;;;;;;;0.38;100.00;97457.19;5068864;28;20108;-72
2024/02/04 02:32:24;;;;;;;11.75;8.45;;;;;;;0.35;100.00;97451.25;5065845;28;20031;-72
2024/02/04 02:34:49;;;;;;;10.55;8.98;;;;;;;0.31;100.00;97457.34;5071055;28;20021;-72
2024/02/04 02:37:38;;;;;;;9.80;8.80;;;;;;;0.29;100.00;97452.22;5068626;28;20052;-72
2024/02/04 02:40:16;;;;;;;9.68;8.63;;;;;;;0.30;100.00;97459.09;5071013;28;20106;-72
2024/02/04 02:42:44;;;;;;;10.13;9.07;;;;;;;0.22;100.00;97450.63;5068485;28;20113;-72
2024/02/04 02:45:11;;;;;;;9.55;8.20;;;;;;;0.20;100.00;97444.63;5075112;28;20041;-72
2024/02/04 02:47:39;;;;;;;9.32;7.88;;;;;;;0.21;100.00;97433.38;5066083;28;20541;-72
2024/02/04 02:50:06;;;;;;;10.50;8.38;;;;;;;0.19;100.00;97422.22;5058315;28;20574;-72
2024/02/04 02:52:31;;;;;;;9.88;8.05;;;;;;;0.20;100.00;97418.72;5058174;28;20020;-72
2024/02/04 02:54:57;;;;;;;10.20;8.30;;;;;;;0.22;100.00;97410.06;5058920;28;20021;-72
2024/02/04 02:57:22;;;;;;;9.20;8.20;;;;;;;0.25;100.00;97411.72;5059702;28;20515;-72
2024/02/04 02:59:48;;;;;;;8.57;7.78;;;;;;;0.26;100.00;97406.50;5072745;28;20115;-72
2024/02/04 03:02:13;;;;;;;9.70;8.07;;;;;;;0.25;100.00;97402.22;5061771;28;20504;-72
2024/02/04 03:04:39;;;;;;;7.75;7.05;;;;;;;0.23;100.00;97403.97;5067438;28;20048;-72
2024/02/04 03:07:06;;;;;;;8.20;7.40;;;;;;;0.23;100.00;97403.16;5069622;28;20029;-72
2024/02/04 03:09:31;;;;;;;8.68;7.22;;;;;;;0.21;100.00;97403.16;5077399;28;20028;-72
2024/02/04 03:11:57;;;;;;;8.75;7.05;;;;;;;0.20;100.00;97410.97;5061969;28;20040;-72
2024/02/04 03:14:22;;;;;;;8.80;7.32;;;;;;;0.23;100.00;97418.69;5068492;28;20025;-72
2024/02/04 03:16:47;;;;;;;7.60;6.90;;;;;;;0.26;100.00;97426.38;5064789;28;20033;-72
2024/02/04 03:19:13;;;;;;;8.52;6.97;;;;;;;0.33;100.00;97416.72;5058190;28;20024;-72
2024/02/04 03:21:38;;;;;;;8.23;7.43;;;;;;;0.28;100.00;97409.06;5072687;28;20103;-72
2024/02/04 03:24:04;;;;;;;11.63;8.60;;;;;;;0.23;100.00;97409.16;5077162;28;20032;-73
2024/02/04 03:26:29;;;;;;;12.57;9.20;;;;;;;0.18;100.00;97398.06;5068384;28;20033;-72
2024/02/04 03:28:54;;;;;;;17.73;10.73;;;;;;;0.16;100.00;97398.97;5071208;28;20548;-72
2024/02/04 03:31:21;;;;;;;14.32;10.40;;;;;;;0.10;100.00;97399.97;5073670;28;20032;-72
2024/02/04 03:33:46;;;;;;;17.35;10.35;;;;;;;0.10;100.00;97394.78;5077245;27;20461;-72
2024/02/04 03:36:14;;;;;;;15.70;9.70;;;;;;;0.09;100.00;97403.44;5070535;28;20032;-72
2024/02/04 03:38:39;;;;;;;15.45;9.55;;;;;;;-0.01;100.00;97402.78;5057487;28;20054;-72
2024/02/04 03:41:05;;;;;;;9.98;7.97;;;;;;;-0.03;100.00;97400.25;5071254;28;20530;-72
2024/02/04 03:43:30;;;;;;;11.75;8.23;;;;;;;-0.06;100.00;97405.50;5063483;28;20079;-72
2024/02/04 03:45:57;;;;;;;13.75;8.90;;;;;;;-0.01;100.00;97405.38;5068567;28;20048;-72
2024/02/04 03:48:22;;;;;;;13.18;9.90;;;;;;;-0.09;100.00;97404.72;5064563;28;20033;-72
2024/02/04 03:50:47;;;;;;;13.13;9.57;;;;;;;-0.06;100.00;97405.50;5058797;28;20104;-72
2024/02/04 03:53:13;;;;;;;17.02;10.15;;;;;;;-0.15;100.00;97408.28;5062478;28;20066;-72
2024/02/04 03:55:38;;;;;;;14.02;9.38;;;;;;;-0.20;100.00;97408.41;5080304;28;20056;-72
2024/02/04 03:58:03;;;;;;;15.23;10.07;;;;;;;-0.20;100.00;97410.13;5068298;28;20029;-72
2024/02/04 04:00:29;;;;;;;15.40;10.82;;;;;;;-0.15;100.00;97413.47;5057043;28;20634;-72
2024/02/04 04:02:54;;;;;;;15.52;9.85;;;;;;;-0.17;100.00;97407.47;5062026;28;20037;-72
2024/02/04 04:05:20;;;;;;;10.93;8.68;;;;;;;-0.16;100.00;97425.56;5074470;28;20074;-72
2024/02/04 04:07:46;;;;;;;13.25;9.07;;;;;;;-0.12;100.00;97428.94;5075858;28;20024;-72
2024/02/04 04:10:11;;;;;;;11.05;9.57;;;;;;;-0.11;100.00;97435.84;5063250;28;20439;-72
2024/02/04 04:12:37;;;;;;;12.20;8.73;;;;;;;-0.16;100.00;97454.06;5062049;28;20028;-72
2024/02/04 04:15:02;;;;;;;12.13;8.68;;;;;;;-0.23;100.00;97459.38;5070586;28;20024;-72
2024/02/04 04:17:28;;;;;;;14.05;9.60;;;;;;;-0.28;100.00;97472.41;5073727;28;20033;-72
2024/02/04 04:19:53;;;;;;;16.40;10.40;;;;;;;-0.25;100.00;97469.75;5063278;28;20034;-72
2024/02/04 04:22:18;;;;;;;19.67;11.20;;;;;;;-0.26;100.00;97465.47;5079043;28;20028;-72
2024/02/04 04:24:44;;;;;;;24.60;12.63;;;;;;;-0.41;100.00;97460.63;5063782;28;20389;-72
2024/02/04 04:27:09;;;;;;;20.48;12.50;;;;;;;-0.44;100.00;97456.34;5075184;28;20036;-72
2024/02/04 04:29:34;;;;;;;15.48;11.00;;;;;;;-0.47;100.00;97456.41;5062555;28;20079;-72
2024/02/04 04:32:00;;;;;;;17.85;11.32;;;;;;;-0.49;100.00;97463.34;5062141;28;20032;-72
2024/02/04 04:34:25;;;;;;;15.45;11.07;;;;;;;-0.42;100.00;97462.34;5062434;28;20103;-72
2024/02/04 04:36:50;;;;;;;16.50;10.57;;;;;;;-0.50;100.00;97459.06;5074580;28;20512;-72
2024/02/04 04:39:16;;;;;;;19.55;11.65;;;;;;;-0.46;100.00;97460.72;5071738;28;20492;-72
2024/02/04 04:41:43;;;;;;;22.17;12.85;;;;;;;-0.45;100.00;97465.84;5074364;28;20044;-72
2024/02/04 04:44:08;;;;;;;15.98;11.85;;;;;;;-0.46;100.00;97458.94;5061595;28;20477;-72
2024/02/04 04:46:37;;;;;;;20.23;12.98;;;;;;;-0.45;100.00;97459.81;5075195;28;20098;-72
2024/02/04 04:49:03;;;;;;;18.02;12.70;;;;;;;-0.53;100.00;97454.78;5063256;28;20632;-72
2024/02/04 04:51:28;;;;;;;21.27;12.95;;;;;;;-0.69;100.00;97454.25;5060516;28;20035;-72
2024/02/04 04:53:53;;;;;;;15.68;12.65;;;;;;;-0.72;100.00;97459.47;5058647;28;20017;-72
2024/02/04 04:56:19;;;;;;;17.67;12.80;;;;;;;-0.77;100.00;97453.53;5074134;28;20550;-72
2024/02/04 04:58:44;;;;;;;16.17;11.80;;;;;;;-0.73;100.00;97457.78;5071885;28;20579;-72
2024/02/04 05:01:09;;;;;;;13.93;12.45;;;;;;;-0.74;100.00;97458.66;5061638;28;20056;-72
2024/02/04 05:03:35;;;;;;;16.33;12.52;;;;;;;-0.72;100.00;97462.06;5071363;28;20052;-72
2024/02/04 05:06:01;;;;;;;22.80;14.50;;;;;;;-0.72;100.00;97475.84;5073529;28;20040;-72
2024/02/04 05:08:26;;;;;;;36.30;14.52;;;;;;;-0.56;100.00;97469.50;5074713;28;20099;-72
2024/02/04 05:10:51;;;;;;;25.80;15.00;;;;;;;-0.72;100.00;97483.59;5068601;28;20021;-71
2024/02/04 05:13:17;;;;;;;22.35;17.15;;;;;;;-0.74;100.00;97487.13;5067555;28;20058;-72
2024/02/04 05:15:42;;;;;;;24.20;16.25;;;;;;;-0.77;100.00;97493.19;5061650;28;20055;-72
2024/02/04 05:18:08;;;;;;;19.45;14.82;;;;;;;-0.80;100.00;97505.31;5073103;28;20059;-72
2024/02/04 05:20:34;;;;;;;25.02;16.58;;;;;;;-0.80;100.00;97513.06;5072908;28;20024;-72
2024/02/04 05:23:00;;;;;;;21.67;15.70;;;;;;;-0.77;100.00;97515.63;5076603;28;20110;-72
2024/02/04 05:25:25;;;;;;;24.95;17.48;;;;;;;-0.84;100.00;97525.22;5071485;28;20564;-72
2024/02/04 05:27:51;;;;;;;22.95;16.45;;;;;;;-0.83;100.00;97520.88;5055199;28;20393;-72
2024/02/04 05:30:16;;;;;;;20.13;16.05;;;;;;;-0.76;100.00;97523.34;5055164;28;20032;-72
2024/02/04 05:32:41;;;;;;;22.00;16.50;;;;;;;-0.78;100.00;97535.44;5067861;28;20050;-71
2024/02/04 05:35:07;;;;;;;22.20;16.83;;;;;;;-0.72;100.00;97537.91;5068658;28;20025;-72
2024/02/04 05:37:33;;;;;;;23.25;16.20;;;;;;;-0.71;100.00;97546.56;5054613;28;20033;-72
2024/02/04 05:39:58;;;;;;;20.10;15.98;;;;;;;-0.79;100.00;97543.22;5064709;28;20524;-72
2024/02/04 05:42:24;;;;;;;21.42;15.95;;;;;;;-0.87;100.00;97551.13;5056346;28;20045;-71
2024/02/04 05:44:49;;;;;;;20.10;16.00;;;;;;;-0.94;100.00;97555.56;5054886;28;20552;-72
2024/02/04 05:47:15;;;;;;;20.60;16.42;;;;;;;-0.99;100.00;97559.94;5058540;28;20111;-72
2024/02/04 05:49:40;;;;;;;23.92;16.90;;;;;;;-0.94;100.00;97558.13;5072937;28;20085;-71
2024/02/04 05:52:06;;;;;;;24.17;17.35;;;;;;;-0.91;100.00;97560.66;5065078;28;20032;-71
2024/02/04 05:54:31;;;;;;;28.83;22.70;;;;;;;-1.03;100.00;97561.72;5059527;28;20029;-72
2024/02/04 05:56:57;;;;;;;28.00;20.35;;;;;;;-1.10;100.00;97562.72;5074838;28;20043;-72
2024/02/04 05:59:22;;;;;;;31.88;20.70;;;;;;;-1.08;100.00;97558.38;5059407;28;20063;-70
2024/02/04 06:01:47;;;;;;;24.77;18.45;;;;;;;-1.05;100.00;97555.72;5054334;28;20033;-70
2024/02/04 06:04:13;;;;;;;23.77;18.08;;;;;;;-1.08;100.00;97549.75;5070487;28;20024;-71
2024/02/04 06:06:38;;;;;;;24.90;18.48;;;;;;;-1.05;100.00;97549.69;5068348;28;20027;-70
2024/02/04 06:09:04;;;;;;;25.73;18.85;;;;;;;-1.18;100.00;97549.91;5055036;28;20107;-72
2024/02/04 06:11:29;;;;;;;25.10;17.73;;;;;;;-1.15;100.00;97546.41;5066514;28;20044;-72
2024/02/04 06:13:54;;;;;;;17.33;14.30;;;;;;;-1.10;100.00;97551.50;5065317;28;20028;-72
2024/02/04 06:16:20;;;;;;;18.98;13.55;;;;;;;-1.22;100.00;97545.63;5056129;28;20060;-72
2024/02/04 06:18:45;;;;;;;18.02;13.20;;;;;;;-1.24;100.00;97549.97;5062914;28;20456;-72
2024/02/04 06:21:11;;;;;;;19.08;13.35;;;;;;;-1.13;100.00;97549.81;5070517;28;20034;-72
2024/02/04 06:23:38;;;;;;;14.30;11.40;;;;;;;-1.09;100.00;97535.09;5062253;28;20029;-72
2024/02/04 06:26:04;;;;;;;14.85;12.68;;;;;;;-1.16;100.00;97535.22;5060170;28;20028;-72
2024/02/04 06:28:30;;;;;;;14.02;11.65;;;;;;;-1.13;100.00;97536.88;5067010;28;20036;-72
2024/02/04 06:30:55;;;;;;;14.32;11.55;;;;;;;-1.03;100.00;97537.59;5060935;28;20502;-72
2024/02/04 06:33:22;;;;;;;15.48;11.95;;;;;;;-0.94;100.00;97540.03;5056981;28;20048;-72
2024/02/04 06:35:47;;;;;;;18.00;12.65;;;;;;;-0.87;100.00;97548.56;5058931;28;20028;-71
2024/02/04 06:38:12;;;;;;;23.02;15.40;;;;;;;-0.79;100.00;97545.81;5059654;28;20048;-71
2024/02/04 06:40:38;;;;;;;24.90;16.33;;;;;;;-0.74;100.00;97542.28;5068408;28;20033;-71
2024/02/04 06:43:03;;;;;;;25.08;15.98;;;;;;;-0.74;100.00;97528.50;5065169;28;20128;-72
2024/02/04 06:45:29;;;;;;;27.05;19.08;;;;;;;-0.75;100.00;97531.97;5070658;28;20074;-72
2024/02/04 06:47:54;;;;;;;28.88;19.98;;;;;;;-0.68;100.00;97538.72;5062934;28;20028;-71
2024/02/04 06:50:19;;;;;;;38.38;17.08;;;;;;;-0.72;100.00;97539.66;5069026;28;20055;-71
2024/02/04 06:52:46;;;;;;;36.70;17.13;;;;;;;-0.82;100.00;97541.56;5061569;28;20166;-72
2024/02/04 06:55:11;;;;;;;32.83;15.98;;;;;;;-0.82;100.00;97543.28;5054191;28;20021;-72
2024/02/04 06:57:37;;;;;;;19.45;15.27;;;;;;;-0.83;100.00;97541.56;5053693;28;20588;-72
2024/02/04 07:00:07;;;;;;;44.13;15.38;;;;;;;-0.84;100.00;97542.44;5059842;28;20078;-71
2024/02/04 07:02:33;;;;;;;25.02;17.67;;;;;;;-0.82;100.00;97540.69;5064611;28;20047;-72
2024/02/04 07:04:59;;;;;;;27.17;18.42;;;;;;;-0.75;100.00;97534.56;5054063;28;20037;-72
2024/02/04 07:07:24;;;;;;;29.27;19.52;;;;;;;-0.73;100.00;97543.13;5058953;28;20056;-71
2024/02/04 07:09:49;;;;;;;34.38;21.33;;;;;;;-0.78;100.00;97542.34;5062984;28;20139;-71
2024/02/04 07:12:15;;;;;;;33.65;22.35;;;;;;;-0.75;100.00;97542.31;5064859;28;20435;-71
2024/02/04 07:14:40;;;;;;;32.55;20.92;;;;;;;-0.70;100.00;97534.44;5064161;28;20023;-72
2024/02/04 07:17:05;;;;;;;32.75;20.85;;;;;;;-0.67;100.00;97534.41;5053418;28;20507;-72
2024/02/04 07:19:31;;;;;;;33.50;20.60;;;;;;;-0.71;100.00;97533.63;5064955;28;20025;-71
2024/02/04 07:21:56;;;;;;;43.03;21.27;;;;;;;-0.72;100.00;97529.31;5069150;28;20146;-72
2024/02/04 07:24:21;;;;;;;34.08;21.17;;;;;;;-0.70;100.00;97522.38;5074637;28;20017;-71
2024/02/04 07:26:47;;;;;;;41.15;21.23;;;;;;;-0.71;100.00;97520.69;5064063;28;20080;-72
2024/02/04 07:29:13;;;;;;;25.92;17.48;;;;;;;-0.74;100.00;97512.97;5057337;28;20029;-72
2024/02/04 07:31:38;;;;;;;28.85;20.35;;;;;;;-0.73;100.00;97518.09;5060562;28;20025;-71
2024/02/04 07:34:04;;;;;;;106.30;20.77;;;;;;;-0.56;100.00;97506.59;5063285;28;20035;-71
2024/02/04 07:36:30;;;;;;;100.25;20.17;;;;;;;-0.66;100.00;97507.66;5068376;28;20116;-71
2024/02/04 07:38:55;;;;;;;53.05;18.67;;;;;;;-0.80;100.00;97500.13;5059791;28;20111;-72
2024/02/04 07:41:21;;;;;;;65.72;19.15;;;;;;;-0.85;100.00;97499.38;5068266;28;20029;-71
2024/02/04 07:43:48;;;;;;;42.92;15.13;;;;;;;-0.88;100.00;97501.13;5059107;28;20426;-71
2024/02/04 07:46:13;;;;;;;22.98;17.25;;;;;;;-0.85;100.00;97492.47;5062846;28;20055;-71
2024/02/04 07:48:39;;;;;;;24.33;16.65;;;;;;;-0.81;100.00;97486.38;5066030;28;20454;-71
2024/02/04 07:51:04;;;;;;;60.53;19.85;;;;;;;-0.73;100.00;97488.81;5071284;28;20033;-71
2024/02/04 07:53:30;;;;;;;21.15;17.63;;;;;;;-0.76;100.00;97483.69;5074662;28;20027;-71
2024/02/04 07:55:55;;;;;;;28.52;15.95;;;;;;;-0.81;100.00;97493.25;5065735;28;20025;-71
2024/02/04 07:58:21;;;;;;;24.75;17.73;;;;;;;-0.77;100.00;97497.53;5063880;28;20032;-71
2024/02/04 08:00:46;;;;;;;26.40;18.77;;;;;;;-0.58;100.00;97500.59;5063359;28;20037;-71
2024/02/04 08:03:12;;;;;;;47.55;23.10;;;;;;;-0.49;100.00;97507.34;5074908;28;20029;-72
2024/02/04 08:05:37;;;;;;;46.28;22.33;;;;;;;-0.47;100.00;97514.19;5073981;28;20040;-71
2024/02/04 08:08:03;;;;;;;48.42;22.05;;;;;;;-0.55;100.00;97510.91;5069295;28;20058;-71
2024/02/04 08:10:29;;;;;;;36.92;21.70;;;;;;;-0.56;100.00;97522.13;5063298;28;20094;-71
2024/02/04 08:12:54;;;;;;;36.65;22.42;;;;;;;-0.47;100.00;97518.53;5073441;28;20037;-71
2024/02/04 08:15:20;;;;;;;28.15;20.80;;;;;;;-0.36;100.00;97529.50;5060008;28;20031;-71
2024/02/04 08:17:46;;;;;;;55.30;19.33;;;;;;;-0.41;100.00;97528.75;5067514;28;20456;-71
2024/02/04 08:20:12;;;;;;;63.28;16.92;;;;;;;-0.36;100.00;97526.91;5062873;28;20029;-71
2024/02/04 08:22:37;;;;;;;54.15;16.48;;;;;;;-0.31;100.00;97527.72;5064395;28;20098;-71
2024/02/04 08:25:05;;;;;;;47.78;16.17;;;;;;;-0.35;100.00;97532.97;5072583;28;20111;-71
2024/02/04 08:27:31;;;;;;;35.15;16.00;;;;;;;-0.37;100.00;97532.16;5065424;28;20031;-71
2024/02/04 08:29:57;;;;;;;25.55;16.80;;;;;;;-0.38;100.00;97528.69;5059932;28;20456;-71
2024/02/04 08:32:22;;;;;;;23.65;17.00;;;;;;;-0.36;100.00;97524.34;5073175;28;20036;-71
2024/02/04 08:34:48;;;;;;;35.83;17.20;;;;;;;-0.27;100.00;97525.06;5067284;28;20024;-71
2024/02/04 08:37:13;;;;;;;21.38;16.55;;;;;;;-0.30;100.00;97519.06;5063403;28;20454;-71
2024/02/04 08:39:38;;;;;;;24.83;17.55;;;;;;;-0.15;100.00;97515.31;5064830;28;20031;-71
2024/02/04 08:42:04;;;;;;;46.17;19.33;;;;;;;-0.03;100.00;97519.38;5066554;28;20063;-70
2024/02/04 08:44:29;;;;;;;66.55;26.48;;;;;;;0.07;100.00;97524.34;5069396;28;20031;-72
2024/02/04 08:46:55;;;;;;;64.70;19.27;;;;;;;0.11;100.00;97508.72;5064196;28;20031;-72
2024/02/04 08:49:21;;;;;;;41.08;21.00;;;;;;;0.25;100.00;97520.53;5069917;28;20123;-72
2024/02/04 08:51:46;;;;;;;78.28;23.38;;;;;;;0.38;100.00;97505.56;5066853;28;20033;-71
2024/02/04 08:54:12;;;;;;;93.50;25.42;;;;;;;0.48;100.00;97503.63;5059072;28;20028;-72
2024/02/04 08:56:37;;;;;;;81.57;26.75;;;;;;;0.51;100.00;97493.19;5065628;28;20037;-72
2024/02/04 08:59:02;;;;;;;73.13;28.08;;;;;;;0.62;100.00;97482.56;5054969;28;20036;-70
2024/02/04 09:01:28;;;;;;;55.08;30.35;;;;;;;0.77;100.00;97489.97;5054449;28;20118;-74
2024/02/04 09:03:53;;;;;;;67.28;36.75;;;;;;;0.94;100.00;97488.69;5069700;28;20052;-72
2024/02/04 09:06:19;;;;;;;107.20;43.35;;;;;;;1.04;100.00;97486.72;5065202;28;20596;-72
2024/02/04 09:08:44;;;;;;;118.22;40.25;;;;;;;1.12;100.00;97479.63;5061397;28;20091;-72
2024/02/04 09:11:09;;;;;;;114.93;42.30;;;;;;;1.34;100.00;97481.66;5065463;28;20526;-72
2024/02/04 09:13:35;;;;;;;169.25;38.45;;;;;;;1.42;100.00;97487.47;5065542;28;20030;-72
2024/02/04 09:16:00;;;;;;;132.10;37.08;;;;;;;1.48;100.00;97471.72;5060800;28;20028;-70
2024/02/04 09:18:25;;;;;;;89.30;35.50;;;;;;;1.64;100.00;97471.31;5061063;28;20044;-72
2024/02/04 09:20:51;;;;;;;159.52;28.80;;;;;;;1.68;100.00;97468.59;5066533;28;20029;-71
2024/02/04 09:23:16;;;;;;;168.40;22.75;;;;;;;1.94;100.00;97473.94;5066795;28;20059;-72
2024/02/04 09:25:42;;;;;;;119.72;31.40;;;;;;;1.78;100.00;97474.38;5056216;28;20032;-73
2024/02/04 09:28:07;;;;;;;147.05;33.05;;;;;;;1.79;100.00;97477.81;5058741;28;20041;-73
2024/02/04 09:30:32;;;;;;;144.48;26.65;;;;;;;1.97;100.00;97481.63;5056110;28;20166;-72
2024/02/04 09:32:58;;;;;;;115.28;31.83;;;;;;;1.85;100.00;97485.44;5067293;28;20025;-73
2024/02/04 09:35:23;;;;;;;122.57;29.30;;;;;;;1.90;100.00;97493.09;5059117;28;20055;-73
2024/02/04 09:37:49;;;;;;;90.32;22.13;;;;;;;2.18;100.00;97495.75;5053792;28;20029;-73
2024/02/04 09:40:14;;;;;;;97.15;29.23;;;;;;;2.12;100.00;97498.53;5068640;28;20020;-72
2024/02/04 09:42:40;;;;;;;146.80;32.00;;;;;;;2.08;100.00;97502.97;5064923;28;20109;-72
2024/02/04 09:45:06;;;;;;;149.73;31.85;;;;;;;1.98;100.00;97509.31;5066455;28;20028;-72
2024/02/04 09:47:34;;;;;;;273.33;39.92;;;;;;;2.07;100.00;97500.41;5057606;28;20039;-72
2024/02/04 09:50:00;;;;;;;80.35;36.25;;;;;;;1.98;100.00;97506.72;5067784;28;20200;-72
2024/02/04 09:52:30;;;;;;;116.32;33.20;;;;;;;2.21;100.00;97503.44;5065239;28;20068;-73
2024/02/04 09:55:00;;;;;;;118.22;36.03;;;;;;;2.31;100.00;97504.03;5067095;28;20024;-73
2024/02/04 09:57:25;;;;;;;217.82;36.53;;;;;;;2.20;100.00;97506.94;5052171;28;20509;-73
2024/02/04 09:59:51;;;;;;;52.25;34.28;;;;;;;2.38;100.00;97502.09;5053383;28;20615;-73
2024/02/04 10:02:18;;;;;;;64.28;37.00;;;;;;;2.42;100.00;97506.31;5056657;28;20098;-73
2024/02/04 10:04:43;;;;;;;134.50;35.35;;;;;;;2.51;100.00;97508.59;5067131;28;20480;-73
2024/02/04 10:07:09;;;;;;;86.28;36.35;;;;;;;2.48;100.00;97510.47;5064847;28;20987;-73
2024/02/04 10:09:34;;;;;;;116.38;35.63;;;;;;;2.40;100.00;97513.31;5062316;28;20031;-73
2024/02/04 10:12:00;;;;;;;106.95;35.10;;;;;;;2.36;100.00;97511.69;5059168;28;20036;-73
2024/02/04 10:14:25;;;;;;;272.92;39.88;;;;;;;2.38;100.00;97510.72;5068924;28;20023;-73
2024/02/04 10:16:51;;;;;;;181.68;34.80;;;;;;;2.48;100.00;97516.50;5062549;28;20061;-74
2024/02/04 10:19:16;;;;;;;95.22;36.15;;;;;;;2.42;100.00;97516.69;5066031;28;20437;-72
2024/02/04 10:21:42;;;;;;;123.28;39.40;;;;;;;2.38;100.00;97512.50;5070910;28;20039;-72
2024/02/04 10:24:08;;;;;;;159.15;37.10;;;;;;;2.68;100.00;97512.44;5063839;28;20025;-70
2024/02/04 10:26:37;;;;;;;207.00;37.17;;;;;;;2.85;100.00;97517.09;5053430;28;20072;-72
2024/02/04 10:29:03;;;;;;;144.30;37.92;;;;;;;2.70;100.00;97519.31;5066834;28;20138;-73
2024/02/04 10:31:29;;;;;;;174.43;37.90;;;;;;;2.76;100.00;97513.03;5055160;28;20044;-71
2024/02/04 10:33:55;;;;;;;86.07;37.97;;;;;;;2.83;100.00;97516.28;5059983;28;20102;-71
2024/02/04 10:36:21;;;;;;;105.35;37.65;;;;;;;2.76;100.00;97510.44;5062201;28;20021;-71
2024/02/04 10:38:46;;;;;;;53.05;33.45;;;;;;;3.16;100.00;97505.69;5059147;28;20043;-71
2024/02/04 10:41:17;;;;;;;61.72;32.90;;;;;;;3.01;100.00;97514.88;5052876;28;20047;-71
2024/02/04 10:43:44;;;;;;;48.10;33.47;;;;;;;3.06;100.00;97519.91;5055626;28;20045;-71
2024/02/04 10:46:13;;;;;;;42.10;31.67;;;;;;;3.33;100.00;97525.94;5066416;28;20029;-70
2024/02/04 10:48:42;;;;;;;57.03;35.40;;;;;;;3.26;100.00;97524.47;5056112;28;20096;-71
2024/02/04 10:51:14;;;;;;;58.70;34.15;;;;;;;3.40;100.00;97537.00;5063069;28;20022;-71
2024/02/04 10:53:43;;;;;;;53.50;33.03;;;;;;;3.39;100.00;97543.97;5062584;28;20039;-71
2024/02/04 10:56:18;;;;;;;57.50;31.08;;;;;;;3.49;100.00;97541.06;5066663;28;20036;-71
2024/02/04 10:58:44;;;;;;;44.40;32.42;;;;;;;3.34;100.00;97545.88;5067855;28;20028;-72
2024/02/04 11:01:10;;;;;;;53.33;31.55;;;;;;;3.17;100.00;97536.03;5061395;28;20024;-71
2024/02/04 11:03:36;;;;;;;53.53;34.25;;;;;;;3.35;100.00;97546.75;5066843;28;20039;-71
2024/02/04 11:06:01;;;;;;;57.20;34.35;;;;;;;3.08;100.00;97529.38;5058014;28;20024;-71
2024/02/04 11:08:28;;;;;;;111.32;35.80;;;;;;;3.24;100.00;97528.88;5063983;28;20096;-71